• Join FlightAware (Why Join?)
  • Login
  • US Flag 
03:08AM EDT


 

Airport Tracker/Info


-or-


 

Live Flight TrackerFlight Track Log ✈ UAL1208 ✈ 25-Aug-2013 ✈ KIAH - KLAS

Flight Track Log - Related Links

Times and Time Zones

All times are in EDT time to prevent confusion due to time zone crossing. See the UAL1208 flight status page for this flight to view local times or setup timezone preferences in your user account.

Time Position Orientation Groundspeed Altitude Reporting Facility
EDT Latitude Longitude Course Direction KTS MPH feet Rate Location/Type
05:39PM 29.9572 -95.3417 279° West 174 200 700  Level Houston Center
05:40PM 29.9197 -95.3656 209° Southwest 231 266 2,100 1,620 Climbing Houston Center
05:41PM 29.9011 -95.3942 233° Southwest 251 289 3,000 2,160 Climbing Houston Center
05:42PM 30.0276 -95.7364 276° West  Level FlightAware Approximate
05:42PM 29.8903 -95.4831 262° West 284 327 5,600  Level Houston Center
05:43PM 30.0394 -95.8719 276° West  Level FlightAware Approximate
05:43PM 29.9106 -95.5942 282° West 301 346 9,200  Level Houston Center
05:44PM 30.0523 -96.0070 291° West  Level FlightAware Approximate
05:44PM 29.9425 -95.6881 291° West 310 357 11,200  Level Houston Center
05:45PM 30.0794 -96.1389 279° West  Level FlightAware Approximate
05:45PM 29.9786 -95.7936 292° West 351 404 13,600  Level Houston Center
05:46PM 30.0169 -95.9042 292° West 368 423 16,000 1,800 Climbing Houston Center
05:47PM 30.0583 -96.0267 291° West 393 452 17,400 1,500 Climbing Houston Center
05:48PM 30.0867 -96.1586 284° West 422 486 19,200 1,740 Climbing Houston Center
05:49PM 30.1069 -96.2964 280° West 435 501 21,000 1,740 Climbing Houston Center
05:50PM 30.1303 -96.4531 280° West 447 514 22,900 1,680 Climbing Houston Center
05:51PM 30.1525 -96.5997 280° West 456 525 24,500 1,440 Climbing Houston Center
05:52PM 30.1744 -96.7503 280° West 466 536 25,900 1,260 Climbing Houston Center
05:53PM 30.2056 -96.9008 283° West 474 545 27,200 1,200 Climbing Houston Center
05:54PM 30.2381 -97.0525 284° West 478 550 28,400 1,380 Climbing Houston Center
05:55PM 30.2692 -97.2067 283° West 483 556 30,100 1,620 Climbing Houston Center
05:56PM 30.3056 -97.3794 284° West 470 541 31,800 1,320 Climbing Houston Center
05:57PM 30.3367 -97.5269 284° West 467 537 32,900 1,020 Climbing Houston Center
05:58PM 30.3661 -97.6756 283° West 467 537 34,000 1,020 Climbing Houston Center
05:59PM 30.3964 -97.8236 283° West 467 537 35,100 1,140 Climbing Houston Center
06:00PM 30.4261 -97.9678 283° West 458 527 36,400 1,020 Climbing Houston Center
06:01PM 30.4806 -98.1014 295° West 454 522 37,200 720 Climbing Houston Center
06:02PM 30.5389 -98.2336 297° West 454 522 37,900 360 Climbing Houston Center
06:03PM 30.5956 -98.3661 296° West 454 522 38,000  Climbing Houston Center
06:04PM 30.6536 -98.4994 297° West 456 525 38,000  Level Houston Center
06:05PM 30.7106 -98.6314 297° West 454 522 38,000  Level Houston Center
06:06PM 30.7744 -98.7861 296° West 451 519 38,000  Level Houston Center
06:07PM 30.8314 -98.9189 297° West 455 524 38,000  Level Houston Center
06:09PM 30.8869 -99.0533 296° West 455 524 38,000  Level Houston Center
06:10PM 30.9464 -99.1914 297° West 460 529 38,000  Level Houston Center
06:11PM 31.0019 -99.3244 296° West 461 531 38,000  Level Houston Center
06:12PM 31.0581 -99.4597 296° West 464 534 38,000 -60 Level Houston Center
06:13PM 31.1139 -99.5922 296° West 457 526 37,900 -60 Descending Houston Center
06:14PM 31.1692 -99.7261 296° West 462 532 37,900  Level Houston Center
06:15PM 31.2367 -99.8919 295° West 471 542 38,000  Climbing Houston Center
06:16PM 31.2942 -100.0278 296° West 468 539 37,900  Descending Houston Center
06:17PM 31.3503 -100.1669 295° West 477 549 38,000  Climbing Houston Center
06:18PM 31.4056 -100.3014 296° West 464 534 38,000 -60 Level Houston Center
06:19PM 31.4625 -100.4397 296° West 473 544 37,900  Descending Houston Center
06:20PM 31.5294 -100.6058 295° West 470 541 38,000  Climbing Houston Center
06:21PM 31.5839 -100.7419 295° West 467 537 38,000  Level Houston Center
06:22PM 31.6358 -100.8697 296° West 475 547 38,000  Level Houston Center
06:23PM 31.7011 -101.0347 295° West 469 540 38,000  Level Houston Center
06:24PM 31.7561 -101.1728 295° West 466 536 38,000  Level Houston Center
06:25PM 31.8239 -101.3447 295° West 467 537 38,000 -60 Level Fort Worth Center
06:26PM 31.8781 -101.4842 295° West 473 544 37,900  Descending Fort Worth Center
06:27PM 31.9317 -101.6261 294° West 467 537 38,000  Climbing Fort Worth Center
06:28PM 31.9894 -101.7683 296° West 477 549 38,000  Level Fort Worth Center
06:29PM 32.0450 -101.9106 295° West 477 549 38,000  Level Fort Worth Center
06:30PM 32.0983 -102.0531 294° West 477 549 38,000  Level Fort Worth Center
06:31PM 32.1417 -102.1778 292° West 477 549 38,000  Level Fort Worth Center
06:32PM 32.1967 -102.3206 295° West 467 537 38,000  Level Fort Worth Center
06:33PM 32.2517 -102.4636 294° West 467 537 38,000  Level Fort Worth Center
06:34PM 32.3064 -102.6067 294° West 467 537 38,000  Level Fort Worth Center
06:35PM 32.3608 -102.7475 295° West 467 537 38,000  Level Fort Worth Center
06:36PM 32.4133 -102.8883 294° West 467 537 38,000  Level Fort Worth Center
06:37PM 32.4658 -103.0219 295° West 467 537 38,000  Level Fort Worth Center
06:38PM 32.5181 -103.1608 294° West 467 537 38,000  Level Fort Worth Center
06:39PM 32.5722 -103.2972 295° West 467 537 38,000  Level Fort Worth Center
06:40PM 32.6111 -103.4086 293° West 458 527 38,000  Level Albuquerque Center
06:41PM 32.6617 -103.5467 294° West 458 527 38,000  Level Albuquerque Center
06:42PM 32.7133 -103.6850 294° West 458 527 38,000  Level Albuquerque Center
06:43PM 32.7650 -103.8269 293° West 456 525 38,000  Level Albuquerque Center
06:44PM 32.8211 -103.9750 294° West 457 526 38,000  Level Albuquerque Center
06:45PM 32.8947 -104.0950 306° West 450 518 38,000  Level Albuquerque Center
06:46PM 32.9725 -104.2128 308° West 452 520 38,000  Level Albuquerque Center
06:47PM 33.0564 -104.3389 308° West 452 520 38,000  Level Albuquerque Center
06:48PM 33.1339 -104.4553 309° West 449 517 38,000 -60 Level Albuquerque Center
06:49PM 33.2147 -104.5719 310° West 466 536 37,900  Descending Albuquerque Center
06:50PM 33.2919 -104.6992 306° West 469 540 38,000  Climbing Albuquerque Center
06:51PM 33.3714 -104.8142 310° West 451 519 38,000  Level Albuquerque Center
06:52PM 33.4547 -104.9378 309° West 444 511 38,000  Level Albuquerque Center
06:53PM 33.5325 -105.0525 309° West 443 510 38,000  Level Albuquerque Center
06:54PM 33.6092 -105.1672 309° West 442 509 38,000  Level Albuquerque Center
06:55PM 33.6514 -105.3178 289° West 442 509 38,000  Level Albuquerque Center
06:56PM 33.6900 -105.4569 288° West 439 505 38,000  Level Albuquerque Center
06:57PM 33.7292 -105.5911 289° West 435 501 38,000  Level Albuquerque Center
06:58PM 33.7672 -105.7281 289° West 434 499 38,000  Level Albuquerque Center
06:59PM 33.8072 -105.8681 289° West 435 501 38,000  Level Albuquerque Center
07:00PM 33.8436 -106.0028 288° West 435 501 38,000 -60 Level Albuquerque Center
07:01PM 33.8825 -106.1417 289° West 436 502 37,900  Descending Albuquerque Center
07:02PM 33.9186 -106.2739 288° West 434 499 38,000  Climbing Albuquerque Center
07:03PM 33.9639 -106.4375 288° West 429 494 38,000  Level Albuquerque Center
07:04PM 34.0017 -106.5783 288° West 433 498 38,000  Level Albuquerque Center
07:05PM 34.0394 -106.7189 288° West 437 503 38,000  Level Albuquerque Center
07:07PM 34.0747 -106.8525 288° West 433 498 38,000  Level Albuquerque Center
07:08PM 34.1122 -106.9889 288° West 429 494 38,000  Level Albuquerque Center
07:09PM 34.1497 -107.1289 288° West 433 498 38,000  Level Albuquerque Center
07:10PM 34.1858 -107.2672 288° West 434 499 38,000  Level Albuquerque Center
07:11PM 34.2239 -107.4047 289° West 432 497 38,000  Level Albuquerque Center
07:12PM 34.2933 -107.5208 306° West 430 495 38,000  Level Albuquerque Center
07:13PM 34.3656 -107.6339 308° West 425 489 38,000  Level Albuquerque Center
07:14PM 34.4494 -107.7372 315° West 425 489 38,000  Level Albuquerque Center
07:15PM 34.5469 -107.8625 313° West 427 491 38,000  Level Albuquerque Center
07:16PM 34.6247 -107.9706 311° West 425 489 38,000  Level Albuquerque Center
07:17PM 34.6972 -108.0825 308° West 422 486 38,000  Level Albuquerque Center
07:18PM 34.7342 -108.2203 288° West 417 480 38,000  Level Albuquerque Center
07:19PM 34.7581 -108.3533 282° West 420 483 38,000  Level Albuquerque Center
07:20PM 34.7889 -108.5067 284° West 417 480 38,000  Level Albuquerque Center
07:21PM 34.8144 -108.6364 284° West 414 476 38,000  Level Albuquerque Center
07:22PM 34.8394 -108.7703 283° West 417 480 38,000  Level Albuquerque Center
07:23PM 34.8689 -108.9331 282° West 429 494 38,000  Level Albuquerque Center
07:24PM 34.8944 -109.0683 283° West 427 491 38,000  Level Albuquerque Center
07:25PM 34.9186 -109.2064 282° West 431 496 38,000  Level Albuquerque Center
07:26PM 34.9467 -109.3639 282° West 428 493 38,000  Level Albuquerque Center
07:27PM 34.9725 -109.4994 283° West 428 493 38,000  Level Albuquerque Center
07:28PM 35.0003 -109.6569 282° West 425 489 38,000  Level Albuquerque Center
07:29PM 35.0239 -109.7906 282° West 422 486 38,000  Level Albuquerque Center
07:30PM 35.0481 -109.9250 282° West 422 486 38,000  Level Albuquerque Center
07:31PM 35.0758 -110.0822 282° West 422 486 38,000  Level Albuquerque Center
07:32PM 35.0978 -110.2156 281° West 422 486 38,000  Level Albuquerque Center
07:33PM 35.1231 -110.3675 282° West 413 475 38,000  Level Albuquerque Center
07:34PM 35.1442 -110.4994 281° West 412 474 38,000  Level Albuquerque Center
07:35PM 35.1667 -110.6311 282° West 412 474 38,000  Level Albuquerque Center
07:36PM 35.1928 -110.7858 282° West 414 476 38,000 -60 Level Albuquerque Center
07:37PM 35.2158 -110.9194 282° West 418 481 37,900 -540 Descending Albuquerque Center
07:38PM 35.2375 -111.0533 281° West 418 481 37,000 -1,020 Descending Albuquerque Center
07:39PM 35.2642 -111.2119 282° West 431 496 35,900 -1,020 Descending Albuquerque Center
07:40PM 35.2875 -111.3542 281° West 431 496 35,000 -1,020 Descending Albuquerque Center
07:41PM 35.3128 -111.5081 281° West 432 497 33,900 -1,020 Descending Albuquerque Center
07:42PM 35.3364 -111.6567 281° West 442 509 33,000 -1,080 Descending Albuquerque Center
07:43PM 35.3614 -111.8103 281° West 456 525 31,800 -1,500 Descending Albuquerque Center
07:44PM 35.3853 -111.9633 281° West 460 529 30,000 -900 Descending Albuquerque Center
07:45PM 35.4086 -112.1119 281° West 453 521 30,000  Level Albuquerque Center
07:46PM 35.4228 -112.2003 281° West 447 514 30,000  Level Los Angeles Center
07:47PM 35.4508 -112.3819 281° West 453 521 30,000  Level Los Angeles Center
07:48PM 35.4747 -112.5319 281° West 454 522 30,000  Level Los Angeles Center
07:49PM 35.4978 -112.6850 281° West 456 525 30,000  Level Los Angeles Center
07:50PM 35.5206 -112.8386 280° West 456 525 30,000  Level Los Angeles Center
07:51PM 35.5433 -112.9883 281° West 451 519 30,000 -60 Level Los Angeles Center
07:52PM 35.5694 -113.1700 280° West 449 517 29,900 -1,140 Descending Los Angeles Center
07:53PM 35.5903 -113.3069 281° West 447 514 27,700 -2,160 Descending Los Angeles Center
07:54PM 35.6108 -113.4514 280° West 438 504 25,400 -2,400 Descending Los Angeles Center
07:55PM 35.6350 -113.6194 280° West 422 486 22,800 -2,280 Descending Los Angeles Center
07:56PM 35.6536 -113.7553 280° West 411 473 20,700 -2,040 Descending Los Angeles Center
07:57PM 35.6731 -113.8872 280° West 399 459 18,600 -1,980 Descending Los Angeles Center
07:58PM 35.6897 -114.0139 279° West 381 438 16,700 -1,920 Descending Los Angeles Center
07:59PM 35.7067 -114.1350 280° West 369 425 14,700 -2,040 Descending Los Angeles Center
08:00PM 35.7242 -114.2703 279° West 355 409 12,600 -1,560 Descending Los Angeles Center
08:01PM 35.7381 -114.3536 282° West 330 380 12,100 -540 Descending Los Angeles Center
08:02PM 35.7594 -114.3917 305° West 305 351 12,000  Descending Los Angeles Center
08:03PM 35.8175 -114.4200 338° Northwest 299 344 12,100 -600 Climbing Los Angeles Center
08:04PM 35.9186 -114.4547 344° North 293 337 10,900 -1,140 Descending Los Angeles Center
08:05PM 35.9750 -114.4594 356° North 291 335 9,800 -1,500 Descending Los Angeles Center
08:06PM 36.0733 -114.4761 352° North 295 339 8,000 -900 Descending Los Angeles Center
08:07PM 36.1469 -114.4908 351° North 272 313 8,000  Level Los Angeles Center
08:08PM 36.2108 -114.5422 327° Northwest 255 293 8,000  Level Los Angeles Center
08:09PM 36.2444 -114.6056 303° West 258 297 8,000 -540 Level Los Angeles Center
08:10PM 36.2486 -114.7061 273° West 257 296 7,000 -540 Descending Los Angeles Center
08:11PM 36.2436 -114.7875 266° West 258 297 7,000 -180 Level Los Angeles Center
08:12PM 36.2372 -114.8717 265° West 232 267 6,700 -480 Descending Los Angeles Center
08:13PM 36.2422 -114.9433 275° West 211 243 6,000 -300 Descending Los Angeles Center
08:14PM 36.2503 -115.0119 278° West 204 235 6,100 -300 Climbing Los Angeles Center
08:15PM 36.2461 -115.0853 266° West 203 234 5,500 -720 Descending Los Angeles Center
08:16PM 36.1997 -115.1008 195° South 188 216 4,800 -1,020 Descending Los Angeles Center
08:17PM 36.1575 -115.1253 205° Southwest 188 216 3,600 -1,200 Descending Los Angeles Center
08:18PM 36.1189 -115.1461 204° Southwest 166 191 2,700 -1,020 Descending Los Angeles Center